Time,TemperatureF,DewpointF,PressureIn,WindDirection,WindDirectionDegrees,WindSpeedMPH,WindSpeedGustMPH,Humidity,HourlyPrecipIn,Conditions,Clouds,dailyrainin,SoftwareType,DateUTC
2014-01-14 00:02:00,-999.0,-99.9,29.51,North,-999,-999.0,-999.0,-999,-99.99,,,0.00,weatherlink.com 1.10,2014-01-14 06:02:00,
2014-01-14 00:17:00,-999.0,-99.9,29.50,North,-999,-999.0,-999.0,-999,-99.99,,,0.00,weatherlink.com 1.10,2014-01-14 06:17:00,
2014-01-14 00:32:00,-999.0,-99.9,29.49,North,-999,-999.0,-999.0,-999,-99.99,,,0.00,weatherlink.com 1.10,2014-01-14 06:32:00,
2014-01-14 00:47:00,-999.0,-99.9,29.48,North,-999,-999.0,-999.0,-999,-99.99,,,0.00,weatherlink.com 1.10,2014-01-14 06:47:00,
2014-01-14 01:02:00,-999.0,-99.9,29.48,North,-999,-999.0,-999.0,-999,-99.99,,,0.00,weatherlink.com 1.10,2014-01-14 07:02:00,
2014-01-14 01:17:00,-999.0,-99.9,29.47,North,-999,-999.0,-999.0,-999,-99.99,,,0.00,weatherlink.com 1.10,2014-01-14 07:17:00,
2014-01-14 01:32:00,-999.0,-99.9,29.47,North,-999,-999.0,-999.0,-999,-99.99,,,0.00,weatherlink.com 1.10,2014-01-14 07:32:00,
2014-01-14 01:47:00,-999.0,-99.9,29.47,North,-999,-999.0,-999.0,-999,-99.99,,,0.00,weatherlink.com 1.10,2014-01-14 07:47:00,
2014-01-14 02:02:00,-999.0,-99.9,29.46,North,-999,-999.0,-999.0,-999,-99.99,,,0.00,weatherlink.com 1.10,2014-01-14 08:02:00,
2014-01-14 02:17:00,-999.0,-99.9,29.47,North,-999,-999.0,-999.0,-999,-99.99,,,0.00,weatherlink.com 1.10,2014-01-14 08:17:00,
2014-01-14 02:32:00,-999.0,-99.9,29.47,North,-999,-999.0,-999.0,-999,-99.99,,,0.00,weatherlink.com 1.10,2014-01-14 08:32:00,
2014-01-14 02:47:00,-999.0,-99.9,29.47,North,-999,-999.0,-999.0,-999,-99.99,,,0.00,weatherlink.com 1.10,2014-01-14 08:47:00,
2014-01-14 03:03:00,-999.0,-99.9,29.47,North,-999,-999.0,-999.0,-999,-99.99,,,0.00,weatherlink.com 1.10,2014-01-14 09:03:00,
2014-01-14 03:17:00,-999.0,-99.9,29.47,North,-999,-999.0,-999.0,-999,-99.99,,,0.00,weatherlink.com 1.10,2014-01-14 09:17:00,
2014-01-14 03:32:00,-999.0,-99.9,29.47,North,-999,-999.0,-999.0,-999,-99.99,,,0.00,weatherlink.com 1.10,2014-01-14 09:32:00,
2014-01-14 03:47:00,-999.0,-99.9,29.47,North,-999,-999.0,-999.0,-999,-99.99,,,0.00,weatherlink.com 1.10,2014-01-14 09:47:00,
2014-01-14 04:02:00,-999.0,-99.9,29.47,North,-999,-999.0,-999.0,-999,-99.99,,,0.00,weatherlink.com 1.10,2014-01-14 10:02:00,
2014-01-14 04:17:00,-999.0,-99.9,29.42,North,-999,-999.0,-999.0,-999,-99.99,,,0.00,weatherlink.com 1.10,2014-01-14 10:17:00,
2014-01-14 04:32:00,-999.0,-99.9,29.43,North,-999,-999.0,-999.0,-999,-99.99,,,0.00,weatherlink.com 1.10,2014-01-14 10:32:00,
2014-01-14 04:47:00,-999.0,-99.9,29.44,North,-999,-999.0,-999.0,-999,-99.99,,,0.00,weatherlink.com 1.10,2014-01-14 10:47:00,
2014-01-14 05:02:00,-999.0,-99.9,29.45,North,-999,-999.0,-999.0,-999,-99.99,,,0.00,weatherlink.com 1.10,2014-01-14 11:02:00,
2014-01-14 05:17:00,-999.0,-99.9,29.47,North,-999,-999.0,-999.0,-999,-99.99,,,0.00,weatherlink.com 1.10,2014-01-14 11:17:00,
2014-01-14 05:32:00,-999.0,-99.9,29.49,North,-999,-999.0,-999.0,-999,-99.99,,,0.00,weatherlink.com 1.10,2014-01-14 11:32:00,
2014-01-14 05:47:00,-999.0,-99.9,29.50,North,-999,-999.0,-999.0,-999,-99.99,,,0.00,weatherlink.com 1.10,2014-01-14 11:47:00,
2014-01-14 06:02:00,-999.0,-99.9,29.52,North,-999,-999.0,-999.0,-999,-99.99,,,0.00,weatherlink.com 1.10,2014-01-14 12:02:00,
2014-01-14 06:17:00,-999.0,-99.9,29.54,North,-999,-999.0,-999.0,-999,-99.99,,,0.00,weatherlink.com 1.10,2014-01-14 12:17:00,
2014-01-14 06:32:00,-999.0,-99.9,29.55,North,-999,-999.0,-999.0,-999,-99.99,,,0.00,weatherlink.com 1.10,2014-01-14 12:32:00,
2014-01-14 06:47:00,-999.0,-99.9,29.57,North,-999,-999.0,-999.0,-999,-99.99,,,0.00,weatherlink.com 1.10,2014-01-14 12:47:00,
2014-01-14 07:02:00,-999.0,-99.9,29.58,North,-999,-999.0,-999.0,-999,-99.99,,,0.00,weatherlink.com 1.10,2014-01-14 13:02:00,
2014-01-14 07:17:00,-999.0,-99.9,29.60,North,-999,-999.0,-999.0,-999,-99.99,,,0.00,weatherlink.com 1.10,2014-01-14 13:17:00,
2014-01-14 07:32:00,-999.0,-99.9,29.61,North,-999,-999.0,-999.0,-999,-99.99,,,0.00,weatherlink.com 1.10,2014-01-14 13:32:00,
2014-01-14 07:47:00,-999.0,-99.9,29.63,North,-999,-999.0,-999.0,-999,-99.99,,,0.00,weatherlink.com 1.10,2014-01-14 13:47:00,
2014-01-14 08:02:00,-999.0,-99.9,29.64,North,-999,-999.0,-999.0,-999,-99.99,,,0.00,weatherlink.com 1.10,2014-01-14 14:02:00,
2014-01-14 08:17:00,-999.0,-99.9,29.66,North,-999,-999.0,-999.0,-999,-99.99,,,0.00,weatherlink.com 1.10,2014-01-14 14:17:00,
2014-01-14 08:32:00,-999.0,-99.9,29.66,North,-999,-999.0,-999.0,-999,-99.99,,,0.00,weatherlink.com 1.10,2014-01-14 14:32:00,
2014-01-14 08:47:00,-999.0,-99.9,29.68,North,-999,-999.0,-999.0,-999,-99.99,,,0.00,weatherlink.com 1.10,2014-01-14 14:47:00,
2014-01-14 09:02:00,-999.0,-99.9,29.70,North,-999,-999.0,-999.0,-999,-99.99,,,0.00,weatherlink.com 1.10,2014-01-14 15:02:00,
2014-01-14 09:17:00,-999.0,-99.9,29.71,North,-999,-999.0,-999.0,-999,-99.99,,,0.00,weatherlink.com 1.10,2014-01-14 15:17:00,
2014-01-14 09:32:00,-999.0,-99.9,29.72,North,-999,-999.0,-999.0,-999,-99.99,,,0.00,weatherlink.com 1.10,2014-01-14 15:32:00,
2014-01-14 09:47:00,-999.0,-99.9,29.74,North,-999,-999.0,-999.0,-999,-99.99,,,0.00,weatherlink.com 1.10,2014-01-14 15:47:00,
2014-01-14 10:02:00,-999.0,-99.9,29.75,North,-999,-999.0,-999.0,-999,-99.99,,,0.00,weatherlink.com 1.10,2014-01-14 16:02:00,
2014-01-14 10:17:00,-999.0,-99.9,29.76,North,-999,-999.0,-999.0,-999,-99.99,,,0.00,weatherlink.com 1.10,2014-01-14 16:17:00,
2014-01-14 10:32:00,-999.0,-99.9,29.77,North,-999,-999.0,-999.0,-999,-99.99,,,0.00,weatherlink.com 1.10,2014-01-14 16:32:00,
2014-01-14 10:47:00,-999.0,-99.9,29.78,North,-999,-999.0,-999.0,-999,-99.99,,,0.00,weatherlink.com 1.10,2014-01-14 16:47:00,
2014-01-14 11:02:00,-999.0,-99.9,29.79,North,-999,-999.0,-999.0,-999,-99.99,,,0.00,weatherlink.com 1.10,2014-01-14 17:02:00,
2014-01-14 11:17:00,-999.0,-99.9,29.79,North,-999,-999.0,-999.0,-999,-99.99,,,0.00,weatherlink.com 1.10,2014-01-14 17:17:00,
2014-01-14 11:32:00,-999.0,-99.9,29.80,North,-999,-999.0,-999.0,-999,-99.99,,,0.00,weatherlink.com 1.10,2014-01-14 17:32:00,
2014-01-14 11:47:00,-999.0,-99.9,29.81,North,-999,-999.0,-999.0,-999,-99.99,,,0.00,weatherlink.com 1.10,2014-01-14 17:47:00,
2014-01-14 12:02:00,-999.0,-99.9,29.81,North,-999,-999.0,-999.0,-999,-99.99,,,0.00,weatherlink.com 1.10,2014-01-14 18:02:00,
2014-01-14 12:17:00,-999.0,-99.9,29.81,North,-999,-999.0,-999.0,-999,-99.99,,,0.00,weatherlink.com 1.10,2014-01-14 18:17:00,
2014-01-14 12:32:00,-999.0,-99.9,29.82,North,-999,-999.0,-999.0,-999,-99.99,,,0.00,weatherlink.com 1.10,2014-01-14 18:32:00,
2014-01-14 12:47:00,-999.0,-99.9,29.82,North,-999,-999.0,-999.0,-999,-99.99,,,0.00,weatherlink.com 1.10,2014-01-14 18:47:00,
2014-01-14 13:03:00,-999.0,-99.9,29.82,North,-999,-999.0,-999.0,-999,-99.99,,,0.00,weatherlink.com 1.10,2014-01-14 19:03:00,
2014-01-14 13:18:00,19.1,9.0,29.83,NNE,13,5.0,-999.0,65,-99.99,,,0.00,weatherlink.com 1.10,2014-01-14 19:18:00,
2014-01-14 13:32:00,19.5,9.0,29.93,North,1,4.0,-999.0,63,-99.99,,,0.00,weatherlink.com 1.10,2014-01-14 19:32:00,
2014-01-14 13:47:00,19.7,9.0,29.94,North,352,4.0,-999.0,63,-99.99,,,0.00,weatherlink.com 1.10,2014-01-14 19:47:00,
2014-01-14 14:02:00,19.4,8.0,29.95,North,352,7.0,-999.0,62,-99.99,,,0.00,weatherlink.com 1.10,2014-01-14 20:02:00,
2014-01-14 14:17:00,19.2,8.0,29.95,NNW,336,2.0,-999.0,63,-99.99,,,0.00,weatherlink.com 1.10,2014-01-14 20:17:00,
2014-01-14 14:32:00,19.1,8.0,29.96,North,0,4.0,-999.0,62,-99.99,,,0.00,weatherlink.com 1.10,2014-01-14 20:32:00,
2014-01-14 14:47:00,19.2,8.0,29.97,NE,46,4.0,-999.0,62,-99.99,,,0.00,weatherlink.com 1.10,2014-01-14 20:47:00,
2014-01-14 15:02:00,19.2,8.0,29.98,North,3,2.0,-999.0,61,-99.99,,,0.00,weatherlink.com 1.10,2014-01-14 21:02:00,
2014-01-14 15:17:00,19.2,7.0,29.99,NNE,13,2.0,-999.0,60,-99.99,,,0.00,weatherlink.com 1.10,2014-01-14 21:17:00,
2014-01-14 15:32:00,18.8,7.0,30.00,North,0,5.0,-999.0,59,-99.99,,,0.00,weatherlink.com 1.10,2014-01-14 21:32:00,
2014-01-14 15:47:00,17.5,5.0,30.02,NNW,342,6.0,-999.0,59,-99.99,,,0.00,weatherlink.com 1.10,2014-01-14 21:47:00,
2014-01-14 16:02:00,17.3,5.0,30.02,NW,324,11.0,-999.0,60,-99.99,,,0.00,weatherlink.com 1.10,2014-01-14 22:02:00,
2014-01-14 16:17:00,17.3,6.0,30.03,North,1,1.0,-999.0,61,-99.99,,,0.00,weatherlink.com 1.10,2014-01-14 22:17:00,
2014-01-14 16:32:00,17.5,6.0,30.04,NNW,336,1.0,-999.0,61,-99.99,,,0.00,weatherlink.com 1.10,2014-01-14 22:32:00,
2014-01-14 16:47:00,17.3,6.0,30.05,NNW,332,2.0,-999.0,62,-99.99,,,0.00,weatherlink.com 1.10,2014-01-14 22:47:00,
2014-01-14 17:02:00,-999.0,-99.9,29.96,North,-999,-999.0,-999.0,-999,-99.99,,,0.00,weatherlink.com 1.10,2014-01-14 23:02:00,
2014-01-14 17:17:00,-999.0,-99.9,29.96,North,-999,-999.0,-999.0,-999,-99.99,,,0.00,weatherlink.com 1.10,2014-01-14 23:17:00,
2014-01-14 17:32:00,-999.0,-99.9,29.97,North,-999,-999.0,-999.0,-999,-99.99,,,0.00,weatherlink.com 1.10,2014-01-14 23:32:00,
2014-01-14 17:47:00,-999.0,-99.9,29.97,North,-999,-999.0,-999.0,-999,-99.99,,,0.00,weatherlink.com 1.10,2014-01-14 23:47:00,
2014-01-14 18:17:00,-999.0,-99.9,29.98,North,-999,-999.0,-999.0,-999,-99.99,,,0.00,weatherlink.com 1.10,2014-01-15 00:17:00,
2014-01-14 18:32:00,-999.0,-99.9,30.00,North,-999,-999.0,-999.0,-999,-99.99,,,0.00,weatherlink.com 1.10,2014-01-15 00:32:00,
2014-01-14 18:47:00,-999.0,-99.9,30.00,North,-999,-999.0,-999.0,-999,-99.99,,,0.00,weatherlink.com 1.10,2014-01-15 00:47:00,
2014-01-14 19:02:00,-999.0,-99.9,30.01,North,-999,-999.0,-999.0,-999,-99.99,,,0.00,weatherlink.com 1.10,2014-01-15 01:02:00,
2014-01-14 19:17:00,-999.0,-99.9,30.02,North,-999,-999.0,-999.0,-999,-99.99,,,0.00,weatherlink.com 1.10,2014-01-15 01:17:00,
2014-01-14 19:32:00,-999.0,-99.9,30.02,North,-999,-999.0,-999.0,-999,-99.99,,,0.00,weatherlink.com 1.10,2014-01-15 01:32:00,
2014-01-14 19:47:00,-999.0,-99.9,30.03,North,-999,-999.0,-999.0,-999,-99.99,,,0.00,weatherlink.com 1.10,2014-01-15 01:47:00,
2014-01-14 20:02:00,-999.0,-99.9,30.03,North,-999,-999.0,-999.0,-999,-99.99,,,0.00,weatherlink.com 1.10,2014-01-15 02:02:00,
2014-01-14 20:17:00,-999.0,-99.9,30.03,North,-999,-999.0,-999.0,-999,-99.99,,,0.00,weatherlink.com 1.10,2014-01-15 02:17:00,
2014-01-14 20:33:00,-999.0,-99.9,30.03,North,-999,-999.0,-999.0,-999,-99.99,,,0.00,weatherlink.com 1.10,2014-01-15 02:33:00,
2014-01-14 20:48:00,-999.0,-99.9,30.05,North,-999,-999.0,-999.0,-999,-99.99,,,0.00,weatherlink.com 1.10,2014-01-15 02:48:00,
2014-01-14 21:03:00,-999.0,-99.9,30.05,North,-999,-999.0,-999.0,-999,-99.99,,,0.00,weatherlink.com 1.10,2014-01-15 03:03:00,
2014-01-14 21:18:00,-999.0,-99.9,30.05,North,-999,-999.0,-999.0,-999,-99.99,,,0.00,weatherlink.com 1.10,2014-01-15 03:18:00,
2014-01-14 21:32:00,-999.0,-99.9,30.05,North,-999,-999.0,-999.0,-999,-99.99,,,0.00,weatherlink.com 1.10,2014-01-15 03:32:00,
2014-01-14 21:47:00,-999.0,-99.9,30.05,North,-999,-999.0,-999.0,-999,-99.99,,,0.00,weatherlink.com 1.10,2014-01-15 03:47:00,
2014-01-14 22:02:00,-999.0,-99.9,30.06,North,-999,-999.0,-999.0,-999,-99.99,,,0.00,weatherlink.com 1.10,2014-01-15 04:02:00,
2014-01-14 22:17:00,-999.0,-99.9,30.06,North,-999,-999.0,-999.0,-999,-99.99,,,0.00,weatherlink.com 1.10,2014-01-15 04:17:00,
2014-01-14 22:32:00,-999.0,-99.9,30.06,North,-999,-999.0,-999.0,-999,-99.99,,,0.00,weatherlink.com 1.10,2014-01-15 04:32:00,
2014-01-14 22:47:00,-999.0,-99.9,30.07,North,-999,-999.0,-999.0,-999,-99.99,,,0.00,weatherlink.com 1.10,2014-01-15 04:47:00,
2014-01-14 23:02:00,-999.0,-99.9,30.07,North,-999,-999.0,-999.0,-999,-99.99,,,0.00,weatherlink.com 1.10,2014-01-15 05:02:00,
2014-01-14 23:17:00,-999.0,-99.9,30.07,North,-999,-999.0,-999.0,-999,-99.99,,,0.00,weatherlink.com 1.10,2014-01-15 05:17:00,
2014-01-14 23:32:00,-999.0,-99.9,30.06,North,-999,-999.0,-999.0,-999,-99.99,,,0.00,weatherlink.com 1.10,2014-01-15 05:32:00,
2014-01-14 23:47:00,-999.0,-99.9,30.06,North,-999,-999.0,-999.0,-999,-99.99,,,0.00,weatherlink.com 1.10,2014-01-15 05:47:00,